Time;durP1;ratioP1;P1;durP2;ratioP2;P2;SDS_P1;SDS_P2;PMS_P1;PMS_P2;Temp;Humidity;BMP_temperature;BMP_pressure;BME280_temperature;BME280_humidity;BME280_pressure;Samples;Min_cycle;Max_cycle;Signal;HPM_P1;HPM_P2
2022/01/03 00:01:08;;;;;;;11.27;2.88;;;;;;;12.27;98.00;99457.63;5114053;28;20649;-76
2022/01/03 00:03:35;;;;;;;6.75;2.50;;;;;;;12.30;96.93;99470.94;5106772;28;20195;-78
2022/01/03 00:06:02;;;;;;;9.75;2.55;;;;;;;12.33;97.21;99463.63;5112143;28;20239;-78
2022/01/03 00:08:31;;;;;;;7.00;2.10;;;;;;;12.28;97.15;99464.78;5112284;28;20192;-79
2022/01/03 00:10:58;;;;;;;8.57;2.78;;;;;;;12.34;96.83;99474.28;5112283;28;20680;-78
2022/01/03 00:13:25;;;;;;;9.00;2.55;;;;;;;12.38;95.92;99464.16;5097003;28;20197;-80
2022/01/03 00:15:55;;;;;;;10.77;2.63;;;;;;;12.39;94.80;99465.88;5091773;28;20196;-80
2022/01/03 06:28:11;;;;;;;13.85;4.25;;;;;;;11.10;100.00;99475.06;5114493;27;20221;-77
2022/01/03 06:30:38;;;;;;;15.63;3.33;;;;;;;11.07;100.00;99467.19;5115286;28;20586;-77
2022/01/03 06:33:06;;;;;;;11.05;3.20;;;;;;;11.06;100.00;99478.94;5116524;28;20265;-77
2022/01/03 06:35:33;;;;;;;8.20;3.10;;;;;;;11.04;100.00;99481.72;5117213;28;20189;-75
2022/01/03 06:38:01;;;;;;;9.18;2.25;;;;;;;11.02;100.00;99483.66;5118472;28;20283;-76
2022/01/03 06:40:29;;;;;;;5.45;2.30;;;;;;;11.14;100.00;99483.84;5118513;28;20544;-77
2022/01/03 06:42:56;;;;;;;9.27;2.50;;;;;;;11.10;100.00;99476.91;5116751;28;20664;-76
2022/01/03 06:45:23;;;;;;;9.77;2.63;;;;;;;11.08;100.00;99477.03;5116275;28;20275;-76
2022/01/03 06:49:09;;;;;;;7.38;2.58;;;;;;;11.00;100.00;99482.00;5113913;27;20560;-76
2022/01/03 06:51:36;;;;;;;12.38;3.25;;;;;;;11.01;100.00;99476.53;5111919;28;20194;-76
2022/01/03 06:54:04;;;;;;;6.40;2.33;;;;;;;10.98;100.00;99470.47;5109898;28;20196;-76
2022/01/03 06:56:30;;;;;;;7.38;2.67;;;;;;;11.02;100.00;99472.88;5113213;28;20279;-77
2022/01/03 06:58:57;;;;;;;9.35;2.58;;;;;;;10.83;100.00;99472.25;5107396;28;20196;-77
2022/01/03 07:01:25;;;;;;;11.75;3.05;;;;;;;11.03;100.00;99468.34;5094378;28;20255;-77
2022/01/03 07:03:51;;;;;;;11.00;3.40;;;;;;;10.91;100.00;99464.59;5094123;28;20276;-77
2022/01/03 07:06:19;;;;;;;13.35;3.10;;;;;;;10.90;100.00;99473.63;5092244;28;20271;-75
2022/01/03 07:08:46;;;;;;;9.18;3.65;;;;;;;11.04;100.00;99475.47;5089739;28;20299;-77
2022/01/03 07:11:13;;;;;;;10.05;2.90;;;;;;;11.07;100.00;99480.66;5090918;28;20268;-77
2022/01/03 07:13:44;;;;;;;10.50;3.63;;;;;;;11.10;100.00;99476.91;5090785;28;20658;-77
2022/01/03 07:19:00;;;;;;;9.75;2.63;;;;;;;11.02;100.00;99483.66;5092628;28;20200;-77
2022/01/03 07:21:29;;;;;;;11.27;3.00;;;;;;;10.99;100.00;99469.47;5109589;28;20199;-77
2022/01/03 07:23:57;;;;;;;10.63;4.05;;;;;;;10.89;100.00;99490.75;5091278;28;20189;-76
2022/01/03 07:26:26;;;;;;;11.40;2.88;;;;;;;10.96;100.00;99484.00;5092754;28;20197;-76
2022/01/03 07:28:56;;;;;;;11.27;2.95;;;;;;;11.03;100.00;99479.13;5111609;28;20303;-76
2022/01/03 07:31:23;;;;;;;11.75;3.00;;;;;;;10.92;100.00;99484.28;5111658;28;20192;-76
2022/01/03 07:33:50;;;;;;;7.75;3.55;;;;;;;11.00;100.00;99484.69;5090700;28;20224;-77
2022/01/03 07:36:16;;;;;;;9.35;3.00;;;;;;;11.00;100.00;99484.69;5090645;28;20189;-76
2022/01/03 07:38:46;;;;;;;25.95;3.88;;;;;;;10.83;100.00;99493.81;5090259;28;20224;-77
2022/01/03 07:41:14;;;;;;;11.40;3.40;;;;;;;11.05;100.00;99483.44;5090005;28;20197;-76
2022/01/03 07:43:41;;;;;;;15.13;3.47;;;;;;;11.02;100.00;99482.78;5108208;28;20218;-76
2022/01/03 07:46:08;;;;;;;9.93;3.35;;;;;;;10.95;100.00;99487.69;5110056;28;20220;-76
2022/01/03 07:48:35;;;;;;;14.52;3.60;;;;;;;11.02;100.00;99480.94;5104955;28;20234;-76
2022/01/03 07:51:01;;;;;;;14.82;3.63;;;;;;;11.06;100.00;99482.50;5109799;28;20199;-77
2022/01/03 07:53:29;;;;;;;9.93;2.92;;;;;;;11.11;100.00;99473.28;5109784;28;20275;-76
2022/01/03 07:55:58;;;;;;;6.57;2.85;;;;;;;11.07;100.00;99478.84;5090641;28;20203;-77
2022/01/03 07:58:25;;;;;;;8.65;2.90;;;;;;;11.14;100.00;99484.69;5107200;28;20252;-77
2022/01/03 08:00:51;;;;;;;13.93;2.95;;;;;;;11.16;100.00;99474.69;5095842;28;20203;-76
2022/01/03 08:03:18;;;;;;;6.68;3.30;;;;;;;11.14;100.00;99483.84;5093721;28;20295;-77
2022/01/03 08:05:45;;;;;;;11.38;3.47;;;;;;;11.22;100.00;99492.34;5076798;28;20196;-77
2022/01/03 08:08:12;;;;;;;12.43;2.95;;;;;;;11.24;100.00;99477.78;5080670;28;20294;-77
2022/01/03 08:10:41;;;;;;;14.63;3.80;;;;;;;11.15;100.00;99480.22;5079296;28;20212;-77
2022/01/03 08:13:09;;;;;;;8.57;3.60;;;;;;;11.15;100.00;99493.69;5077012;28;20639;-77
2022/01/03 08:15:36;;;;;;;11.80;2.88;;;;;;;11.24;100.00;99487.72;5084183;28;20206;-77
2022/01/03 08:18:02;;;;;;;10.05;3.67;;;;;;;11.36;100.00;99489.63;5081274;28;20269;-77
2022/01/03 08:20:29;;;;;;;13.02;3.25;;;;;;;11.16;100.00;99485.47;5080378;28;20229;-77
2022/01/03 08:22:56;;;;;;;8.20;3.20;;;;;;;11.29;100.00;99492.81;5081230;28;20205;-77
2022/01/03 08:25:23;;;;;;;16.10;4.25;;;;;;;11.31;100.00;99485.50;5079881;28;20201;-77
2022/01/03 08:27:51;;;;;;;15.63;4.18;;;;;;;11.33;100.00;99478.16;5084568;28;20209;-77
2022/01/03 08:30:19;;;;;;;6.97;2.60;;;;;;;11.33;100.00;99475.47;5083143;28;20216;-77
2022/01/03 08:32:46;;;;;;;11.10;3.00;;;;;;;11.39;100.00;99494.81;5082558;28;20193;-78
2022/01/03 08:35:12;;;;;;;15.90;4.25;;;;;;;11.47;100.00;99473.63;5077217;28;20255;-78
2022/01/03 08:37:39;;;;;;;6.20;2.28;;;;;;;11.45;100.00;99482.78;5060004;28;20270;-77
2022/01/03 08:40:07;;;;;;;11.10;3.67;;;;;;;11.54;100.00;99489.44;5066614;28;20208;-79
2022/01/03 08:42:34;;;;;;;12.25;4.18;;;;;;;11.41;100.00;99474.00;5090650;28;20197;-78
2022/01/03 08:45:01;;;;;;;12.63;3.55;;;;;;;11.22;100.00;99481.56;5096902;28;20288;-79
2022/01/03 08:47:29;;;;;;;13.00;4.05;;;;;;;11.31;100.00;99469.34;5099150;28;20224;-78
2022/01/03 08:49:56;;;;;;;13.68;4.10;;;;;;;11.38;100.00;99474.22;5098638;28;20224;-78
2022/01/03 08:52:23;;;;;;;12.93;4.10;;;;;;;11.47;100.00;99479.03;5084601;28;20225;-78
2022/01/03 08:54:50;;;;;;;10.60;3.65;;;;;;;11.57;100.00;99478.44;5069210;28;20267;-79
2022/01/03 08:57:18;;;;;;;14.43;4.15;;;;;;;11.45;100.00;99480.09;5078550;28;20197;-78
2022/01/03 08:59:45;;;;;;;13.45;3.30;;;;;;;11.38;100.00;99474.22;5081174;28;20515;-76
2022/01/03 09:02:12;;;;;;;14.90;4.80;;;;;;;11.39;100.00;99475.94;5078240;28;20292;-76
2022/01/03 09:04:40;;;;;;;15.93;3.70;;;;;;;11.55;100.00;99472.28;5077534;28;20190;-77
2022/01/03 09:07:07;;;;;;;17.73;4.28;;;;;;;11.55;100.00;99477.66;5077093;28;20291;-76
2022/01/03 09:09:34;;;;;;;10.65;4.05;;;;;;;11.59;100.00;99471.97;5075098;28;20217;-77
2022/01/03 09:12:01;;;;;;;10.73;3.45;;;;;;;11.71;100.00;99480.25;5087746;28;20350;-77
2022/01/03 09:14:28;;;;;;;13.05;3.20;;;;;;;11.61;100.00;99474.59;5078525;28;20288;-77
2022/01/03 09:16:55;;;;;;;12.77;3.40;;;;;;;11.50;100.00;99483.34;5076305;28;20205;-78
2022/01/03 09:19:21;;;;;;;10.82;3.67;;;;;;;11.72;100.00;99480.16;5078359;28;20232;-78
2022/01/03 09:21:49;;;;;;;14.68;3.53;;;;;;;11.80;100.00;99469.75;5075858;28;20277;-78
2022/01/03 09:24:23;;;;;;;11.75;3.75;;;;;;;11.64;100.00;99475.22;5073923;28;20240;-78
2022/01/03 09:29:35;;;;;;;10.32;3.03;;;;;;;11.60;100.00;99468.34;5073929;28;20224;-78
2022/01/03 09:32:01;;;;;;;15.15;3.90;;;;;;;11.71;100.00;99464.91;5091334;28;20235;-78
2022/01/03 09:34:28;;;;;;;9.48;3.13;;;;;;;11.74;100.00;99472.84;5076627;28;20285;-77
2022/01/03 09:36:56;;;;;;;8.27;3.13;;;;;;;11.78;100.00;99476.16;5094091;28;20240;-78
2022/01/03 09:39:23;;;;;;;11.23;3.03;;;;;;;11.81;100.00;99486.78;5094113;28;20226;-78
2022/01/03 09:41:58;;;;;;;10.23;3.20;;;;;;;11.74;100.00;99483.63;5094421;28;20657;-78
2022/01/03 09:44:30;;;;;;;17.15;4.68;;;;;;;11.80;100.00;99479.63;5083157;28;20207;-78
2022/01/03 09:47:00;;;;;;;16.33;3.83;;;;;;;11.76;100.00;99473.59;5080001;28;20209;-79
2022/01/03 09:49:32;;;;;;;7.35;4.15;;;;;;;12.09;100.00;99475.06;5090873;28;20200;-77
2022/01/03 09:52:02;;;;;;;11.32;3.00;;;;;;;11.91;100.00;99465.50;5097633;28;20203;-78
2022/01/03 09:54:29;;;;;;;14.10;3.30;;;;;;;12.02;100.00;99469.22;5094988;28;20261;-78
2022/01/03 09:56:59;;;;;;;10.65;4.00;;;;;;;12.07;100.00;99469.78;5095671;28;20201;-77
2022/01/03 09:59:27;;;;;;;8.23;3.13;;;;;;;12.14;100.00;99478.31;5092411;28;20625;-78
2022/01/03 10:01:55;;;;;;;8.40;3.40;;;;;;;11.99;100.00;99485.63;5075192;28;20645;-78
2022/01/03 10:04:23;;;;;;;7.90;2.95;;;;;;;12.03;100.00;99475.47;5093177;28;20227;-78
2022/01/03 10:06:50;;;;;;;8.93;3.45;;;;;;;12.16;100.00;99478.22;5061297;28;20225;-77
2022/01/03 10:09:20;;;;;;;13.18;3.83;;;;;;;11.99;100.00;99469.41;5083799;28;20635;-77
2022/01/03 10:11:47;;;;;;;10.07;4.15;;;;;;;12.00;100.00;99472.97;5080012;28;20201;-77
2022/01/03 10:14:15;;;;;;;12.20;3.25;;;;;;;11.87;100.00;99471.09;5092508;28;20192;-75
2022/01/03 10:16:43;;;;;;;11.18;3.78;;;;;;;11.87;100.00;99464.78;5080619;28;20201;-76
2022/01/03 10:21:52;;;;;;;9.40;3.70;;;;;;;11.95;99.75;99461.63;5030652;28;20603;-77
2022/01/03 10:24:31;;;;;;;24.30;5.72;;;;;;;11.96;100.00;99457.94;5030754;28;20198;-76
2022/01/03 10:26:58;;;;;;;15.18;4.25;;;;;;;11.85;100.00;99451.41;5029031;28;20611;-76
2022/01/03 10:29:31;;;;;;;14.05;3.30;;;;;;;12.01;100.00;99462.09;5030999;28;20248;-77
2022/01/03 10:32:00;;;;;;;13.75;3.35;;;;;;;11.92;100.00;99453.72;5031384;28;20281;-77
2022/01/03 10:34:33;;;;;;;12.75;3.53;;;;;;;11.92;100.00;99469.91;5031690;28;20202;-76
2022/01/03 10:37:09;;;;;;;11.57;4.55;;;;;;;11.80;100.00;99460.75;5031245;28;20194;-77
2022/01/03 10:39:40;;;;;;;11.63;4.63;;;;;;;11.63;100.00;99446.53;5031514;28;20209;-77
2022/01/03 10:42:23;;;;;;;8.65;3.50;;;;;;;11.39;100.00;99446.28;5031679;28;20282;-77
2022/01/03 10:44:50;;;;;;;14.05;4.18;;;;;;;11.35;100.00;99463.66;5031255;28;20617;-77
2022/01/03 10:47:30;;;;;;;14.82;5.20;;;;;;;11.30;100.00;99462.19;5030495;28;20237;-77
2022/01/03 10:49:57;;;;;;;16.58;3.85;;;;;;;11.29;100.00;99441.59;5011409;28;20218;-77
2022/01/03 10:52:27;;;;;;;7.57;3.42;;;;;;;11.25;100.00;99443.63;5018608;28;20273;-77
2022/01/03 10:55:12;;;;;;;9.52;3.40;;;;;;;11.35;100.00;99439.38;5031047;28;20195;-77
2022/01/03 10:57:46;;;;;;;12.85;3.30;;;;;;;11.42;100.00;99439.88;5031406;28;20187;-77
2022/01/03 11:00:15;;;;;;;15.95;4.45;;;;;;;11.69;100.00;99424.59;5070913;28;20607;-77
2022/01/03 11:03:06;;;;;;;15.73;4.85;;;;;;;11.62;100.00;99414.28;5073168;28;20201;-76
2022/01/03 11:05:42;;;;;;;12.57;4.05;;;;;;;11.81;100.00;99427.44;5072963;28;20193;-77
2022/01/03 11:10:59;;;;;;;14.38;5.32;;;;;;;11.79;100.00;99408.66;5078074;28;20308;-77
2022/01/03 11:13:25;;;;;;;9.15;3.75;;;;;;;11.56;100.00;99406.59;5075525;28;20276;-78
2022/01/03 11:15:54;;;;;;;9.68;3.33;;;;;;;11.84;100.00;99390.31;5074643;28;20201;-77
2022/01/03 11:18:22;;;;;;;16.27;3.70;;;;;;;11.83;100.00;99385.03;5073135;28;20218;-77
2022/01/03 11:20:59;;;;;;;13.57;3.40;;;;;;;11.64;100.00;99377.28;5073428;28;20205;-77
2022/01/03 11:23:25;;;;;;;13.20;3.55;;;;;;;11.73;100.00;99379.38;5072733;28;20221;-78
2022/01/03 11:25:54;;;;;;;13.68;4.03;;;;;;;11.86;100.00;99366.81;5072738;28;20199;-78
2022/01/03 11:28:23;;;;;;;9.88;3.10;;;;;;;11.97;100.00;99374.22;5073194;28;20263;-78
2022/01/03 11:30:53;;;;;;;10.93;2.92;;;;;;;11.83;100.00;99377.81;5073566;28;20684;-76
2022/01/03 11:33:20;;;;;;;12.48;3.65;;;;;;;11.76;100.00;99371.09;5072811;28;20205;-77
2022/01/03 11:35:49;;;;;;;13.48;4.05;;;;;;;11.73;100.00;99363.19;5076419;28;20244;-78
2022/01/03 11:38:19;;;;;;;14.23;3.58;;;;;;;11.74;100.00;99361.38;5076483;28;20185;-77
2022/01/03 11:40:46;;;;;;;5.40;2.60;;;;;;;11.78;100.00;99349.41;5076374;28;20268;-77
2022/01/03 11:43:13;;;;;;;8.38;3.20;;;;;;;11.79;100.00;99343.06;5076689;28;20272;-78
2022/01/03 11:45:42;;;;;;;9.18;3.22;;;;;;;11.92;100.00;99345.81;5076929;28;20289;-78
2022/01/03 11:48:09;;;;;;;9.68;2.60;;;;;;;11.81;100.00;99336.59;5076519;28;20229;-78
2022/01/03 11:50:37;;;;;;;15.77;4.43;;;;;;;11.91;100.00;99322.50;5076989;28;20192;-78
2022/01/03 11:53:05;;;;;;;13.00;2.83;;;;;;;11.99;100.00;99334.50;5076683;28;20207;-78
2022/01/03 11:55:34;;;;;;;13.57;3.28;;;;;;;11.87;100.00;99336.22;5077203;28;20550;-78
2022/01/03 11:58:13;;;;;;;9.15;3.00;;;;;;;11.83;100.00;99321.16;5076956;28;20217;-78
2022/01/03 12:04:11;;;;;;;8.43;2.03;;;;;;;12.01;97.46;99292.09;5036453;28;20195;-78
2022/01/03 12:06:39;;;;;;;7.68;2.38;;;;;;;11.86;97.84;99291.25;5036697;28;20301;-78
2022/01/03 12:09:08;;;;;;;10.02;2.97;;;;;;;11.98;99.51;99276.09;5057077;28;20690;-78
2022/01/03 12:11:44;;;;;;;9.90;3.40;;;;;;;12.17;98.02;99278.41;5078840;28;20312;-78
2022/01/03 12:14:12;;;;;;;9.55;3.95;;;;;;;12.13;96.01;99276.88;5077624;28;20212;-77
2022/01/03 12:16:49;;;;;;;10.73;3.38;;;;;;;12.19;95.72;99268.38;5079081;28;20251;-78
2022/01/03 12:19:31;;;;;;;7.72;3.17;;;;;;;12.13;96.49;99266.09;5078770;28;20615;-78
2022/01/03 12:22:10;;;;;;;10.02;2.80;;;;;;;12.14;94.46;99258.84;5079395;28;20216;-78
2022/01/03 12:24:44;;;;;;;13.07;2.80;;;;;;;12.18;95.03;99271.16;5079271;28;20204;-78
2022/01/03 12:27:44;;;;;;;6.95;2.58;;;;;;;12.25;96.58;99265.22;5079874;28;20256;-78
2022/01/03 12:30:20;;;;;;;6.60;2.47;;;;;;;12.35;95.54;99276.25;5079410;28;20662;-78
2022/01/03 12:33:15;;;;;;;10.20;3.38;;;;;;;12.33;97.37;99272.78;5079899;28;20246;-77
2022/01/03 12:35:44;;;;;;;9.48;3.00;;;;;;;12.21;96.80;99266.44;5080148;28;20200;-78
2022/01/03 12:38:15;;;;;;;10.05;3.33;;;;;;;12.27;96.62;99268.66;5079230;28;20284;-78
2022/01/03 12:40:51;;;;;;;11.35;3.90;;;;;;;12.05;98.85;99263.03;5080713;28;20200;-78
2022/01/03 12:43:20;;;;;;;9.30;3.33;;;;;;;11.91;100.00;99272.09;5078945;28;20582;-78
2022/01/03 12:45:52;;;;;;;7.95;3.40;;;;;;;11.86;100.00;99250.81;5079829;28;20205;-78
2022/01/03 12:48:22;;;;;;;8.45;3.70;;;;;;;12.07;100.00;99255.72;5080636;28;20272;-78
2022/01/03 12:51:21;;;;;;;10.25;3.42;;;;;;;12.03;100.00;99248.78;5079846;28;20285;-78
2022/01/03 12:53:51;;;;;;;14.93;3.35;;;;;;;12.11;100.00;99249.13;5079638;28;20623;-78
2022/01/03 12:56:22;;;;;;;9.27;3.70;;;;;;;12.12;100.00;99237.38;5080001;28;20630;-77
2022/01/03 12:58:51;;;;;;;14.90;3.20;;;;;;;12.26;99.99;99231.88;5078018;28;20655;-78
2022/01/03 13:01:30;;;;;;;8.88;3.13;;;;;;;12.24;100.00;99231.09;5079041;28;20196;-77
2022/01/03 13:04:00;;;;;;;9.88;3.58;;;;;;;12.29;97.47;99223.53;5078507;28;20186;-78
2022/01/03 13:06:29;;;;;;;12.80;5.95;;;;;;;12.40;97.09;99214.69;5078351;28;20178;-77
2022/01/03 13:09:11;;;;;;;14.40;4.30;;;;;;;12.24;99.89;99220.31;5078855;28;20247;-78
2022/01/03 13:11:40;;;;;;;9.88;3.85;;;;;;;12.38;96.97;99211.22;5080815;28;20603;-77
2022/01/03 13:14:09;;;;;;;8.95;3.60;;;;;;;12.14;97.71;99207.56;5080587;28;20208;-78
2022/01/03 13:16:38;;;;;;;6.22;2.75;;;;;;;12.30;98.33;99202.81;5080081;28;20340;-77
2022/01/03 13:19:08;;;;;;;8.60;3.47;;;;;;;12.29;98.22;99196.53;5079860;28;20201;-79
2022/01/03 13:21:37;;;;;;;13.57;3.35;;;;;;;12.29;98.39;99190.28;5079462;28;20202;-78
2022/01/03 13:24:09;;;;;;;12.40;2.95;;;;;;;12.14;98.25;99186.84;5078985;28;20271;-77
2022/01/03 13:26:51;;;;;;;9.45;3.10;;;;;;;12.36;98.13;99185.31;5079969;28;20304;-78
2022/01/03 13:29:18;;;;;;;10.95;3.75;;;;;;;12.22;98.74;99184.47;5079590;28;20654;-78
2022/01/03 13:31:45;;;;;;;10.65;4.45;;;;;;;12.25;99.61;99169.88;5079985;28;20627;-78
2022/01/03 13:34:13;;;;;;;10.38;3.40;;;;;;;12.35;98.37;99157.47;5077749;28;20265;-76
2022/01/03 13:36:42;;;;;;;8.20;3.35;;;;;;;12.38;95.94;99161.78;5078625;28;20221;-77
2022/01/03 13:39:11;;;;;;;7.75;2.83;;;;;;;12.28;98.25;99164.28;5078433;28;20213;-78
2022/01/03 13:41:40;;;;;;;12.70;3.20;;;;;;;12.36;98.16;99152.91;5077133;28;20213;-77
2022/01/03 13:44:09;;;;;;;8.38;3.72;;;;;;;12.46;97.12;99148.59;5074230;28;20620;-77
2022/01/03 13:49:23;;;;;;;4.97;3.13;;;;;;;12.42;97.41;99152.47;5073376;28;20208;-78
2022/01/03 13:51:51;;;;;;;9.20;3.38;;;;;;;12.46;97.94;99154.00;5075096;28;20276;-80
2022/01/03 13:54:23;;;;;;;12.60;4.00;;;;;;;12.25;98.90;99165.34;5083618;28;20251;-79
2022/01/03 13:56:50;;;;;;;9.70;3.20;;;;;;;12.45;99.13;99160.34;5080242;28;20276;-78
2022/01/03 13:59:18;;;;;;;6.45;2.90;;;;;;;12.30;99.22;99159.59;5087250;28;20201;-78
2022/01/03 14:01:45;;;;;;;4.90;2.97;;;;;;;12.38;99.98;99150.97;5088050;28;20546;-78
2022/01/03 14:04:12;;;;;;;10.98;3.70;;;;;;;12.28;100.00;99161.59;5091207;28;20219;-78
2022/01/03 14:06:41;;;;;;;7.60;2.83;;;;;;;12.19;99.75;99143.31;5093253;28;20588;-79
2022/01/03 14:09:14;;;;;;;9.77;3.63;;;;;;;12.24;100.00;99133.94;5091794;28;20323;-78
2022/01/03 14:11:42;;;;;;;9.45;3.60;;;;;;;12.25;100.00;99130.25;5091825;28;20279;-78
2022/01/03 14:14:10;;;;;;;7.50;2.75;;;;;;;12.13;100.00;99131.16;5093411;28;20616;-78
2022/01/03 14:16:51;;;;;;;6.97;3.53;;;;;;;12.08;100.00;99131.47;5093668;28;20207;-77
2022/01/03 14:19:17;;;;;;;13.32;4.13;;;;;;;12.05;100.00;99123.63;5081285;28;20212;-78
2022/01/03 14:21:48;;;;;;;4.80;2.80;;;;;;;12.11;100.00;99127.69;5072690;28;20672;-78
2022/01/03 14:24:15;;;;;;;11.60;3.47;;;;;;;12.15;100.00;99131.06;5067984;28;20615;-79
2022/01/03 14:26:53;;;;;;;10.10;3.20;;;;;;;12.06;100.00;99124.47;5079181;28;20231;-78
2022/01/03 14:29:23;;;;;;;7.28;3.08;;;;;;;12.01;100.00;99124.81;5092792;28;20209;-78
2022/01/03 14:31:53;;;;;;;8.65;3.53;;;;;;;12.15;100.00;99115.72;5092996;28;20236;-78
2022/01/03 14:34:25;;;;;;;11.57;4.00;;;;;;;12.02;100.00;99106.78;5093006;28;20206;-78
2022/01/03 14:36:54;;;;;;;14.23;4.40;;;;;;;12.04;100.00;99113.78;5078793;28;20205;-78
2022/01/03 14:39:21;;;;;;;8.25;3.85;;;;;;;12.37;100.00;99109.63;5072324;28;20611;-77
2022/01/03 14:41:58;;;;;;;12.73;3.53;;;;;;;12.19;99.84;99111.81;5072058;28;20626;-78
2022/01/03 14:44:27;;;;;;;8.70;3.70;;;;;;;12.22;100.00;99111.59;5073169;28;20251;-78
2022/01/03 14:47:03;;;;;;;8.45;3.53;;;;;;;12.16;100.00;99103.94;5073465;28;20201;-77
2022/01/03 14:49:30;;;;;;;6.28;3.10;;;;;;;12.26;100.00;99104.16;5090296;28;20227;-78
2022/01/03 14:51:58;;;;;;;5.90;2.80;;;;;;;12.21;100.00;99111.69;5091741;28;20572;-79
2022/01/03 14:54:29;;;;;;;7.97;4.22;;;;;;;12.10;100.00;99097.16;5073760;28;20204;-77
2022/01/03 14:56:56;;;;;;;8.30;3.33;;;;;;;12.09;100.00;99099.97;5085335;28;20192;-78
2022/01/03 14:59:27;;;;;;;4.45;3.00;;;;;;;12.17;100.00;99096.72;5092093;28;20239;-77
2022/01/03 15:01:56;;;;;;;7.07;3.35;;;;;;;11.77;100.00;99107.63;5077164;28;20616;-78
2022/01/03 15:04:26;;;;;;;12.93;3.50;;;;;;;11.84;100.00;99093.59;5072537;28;20658;-77
2022/01/03 15:06:53;;;;;;;9.02;4.03;;;;;;;11.97;100.00;99104.41;5071973;28;20182;-78
2022/01/03 15:09:23;;;;;;;9.40;3.72;;;;;;;11.74;100.00;99092.53;5072891;28;20193;-77
2022/01/03 15:11:51;;;;;;;9.93;3.58;;;;;;;11.59;100.00;99085.53;5075393;28;20190;-77
2022/01/03 15:14:17;;;;;;;7.60;3.40;;;;;;;11.32;100.00;99105.34;5075701;28;20515;-78
2022/01/03 15:16:45;;;;;;;10.70;4.18;;;;;;;11.19;100.00;99107.16;5074755;28;20246;-77
2022/01/03 15:19:11;;;;;;;10.45;4.18;;;;;;;11.06;100.00;99096.38;5072069;28;20267;-78
2022/01/03 15:21:38;;;;;;;12.70;7.20;;;;;;;11.09;100.00;99092.59;5066169;28;20201;-78
2022/01/03 15:24:06;;;;;;;12.93;4.70;;;;;;;11.15;100.00;99084.09;5064631;28;20190;-79
2022/01/03 15:26:34;;;;;;;8.40;4.53;;;;;;;11.20;100.00;99068.47;5063413;28;20202;-78
2022/01/03 15:29:00;;;;;;;8.23;3.85;;;;;;;11.27;100.00;99075.16;5070033;28;20276;-77
2022/01/03 15:31:27;;;;;;;8.57;4.03;;;;;;;11.32;100.00;99064.91;5064207;28;20246;-77
2022/01/03 15:33:54;;;;;;;7.30;3.95;;;;;;;11.33;100.00;99069.34;5063122;28;20293;-78
2022/01/03 15:36:22;;;;;;;8.20;3.40;;;;;;;11.36;100.00;99062.88;5067858;28;20197;-78
2022/01/03 15:38:49;;;;;;;9.77;3.78;;;;;;;11.32;100.00;99056.81;5063522;28;20289;-77
2022/01/03 15:41:15;;;;;;;10.57;4.00;;;;;;;11.29;100.00;99053.50;5070437;28;20194;-77
2022/01/03 15:43:44;;;;;;;8.98;4.50;;;;;;;11.38;100.00;99045.63;5063135;28;20194;-79
2022/01/03 15:46:11;;;;;;;10.68;3.33;;;;;;;11.30;100.00;99047.97;5065821;28;20297;-77
2022/01/03 15:48:38;;;;;;;6.57;3.65;;;;;;;11.20;100.00;99049.59;5064629;28;20229;-79
2022/01/03 15:51:04;;;;;;;13.40;4.00;;;;;;;11.29;100.00;99042.72;5066443;28;20217;-77
2022/01/03 15:53:31;;;;;;;8.27;3.72;;;;;;;11.26;100.00;99046.47;5070602;28;20273;-76
2022/01/03 15:55:58;;;;;;;9.80;3.50;;;;;;;11.29;100.00;99048.97;5065133;28;20597;-79
2022/01/03 15:58:24;;;;;;;12.73;4.05;;;;;;;11.28;100.00;99049.91;5062470;28;20313;-76
2022/01/03 16:00:52;;;;;;;8.40;3.20;;;;;;;11.29;100.00;99045.41;5062719;28;20226;-76
2022/01/03 16:03:21;;;;;;;8.52;3.70;;;;;;;11.32;100.00;99042.50;5065948;28;20194;-76
2022/01/03 16:05:50;;;;;;;8.07;3.75;;;;;;;11.08;100.00;99037.84;5062808;28;20201;-77
2022/01/03 16:08:17;;;;;;;13.55;4.10;;;;;;;11.16;100.00;99042.69;5065285;28;20201;-77
2022/01/03 16:10:43;;;;;;;10.63;4.68;;;;;;;11.25;100.00;99047.44;5065790;28;20245;-78
2022/01/03 16:13:10;;;;;;;6.82;3.90;;;;;;;11.39;100.00;99041.94;5062927;28;20197;-77
2022/01/03 16:15:37;;;;;;;7.80;4.07;;;;;;;11.40;100.00;99030.22;5072097;28;20192;-76
2022/01/03 16:18:05;;;;;;;11.35;3.45;;;;;;;11.35;100.00;99032.38;5065720;28;20281;-77
2022/01/03 16:20:32;;;;;;;9.63;3.92;;;;;;;11.34;100.00;99021.69;5062068;28;20225;-78
2022/01/03 16:22:58;;;;;;;8.90;4.18;;;;;;;11.38;100.00;99015.13;5054004;28;20237;-78
2022/01/03 16:25:25;;;;;;;7.75;4.30;;;;;;;11.48;100.00;99011.63;5061582;28;20279;-76
2022/01/03 16:27:52;;;;;;;9.52;3.85;;;;;;;11.56;100.00;98994.94;5065060;28;20213;-76
2022/01/03 16:30:20;;;;;;;6.80;3.60;;;;;;;11.60;100.00;98987.47;5064390;28;20213;-76
2022/01/03 16:32:47;;;;;;;11.73;4.20;;;;;;;11.59;100.00;98994.69;5065041;28;20554;-76
2022/01/03 16:35:16;;;;;;;10.00;3.80;;;;;;;11.60;100.00;98992.84;5064761;28;20229;-77
2022/01/03 16:37:44;;;;;;;9.82;3.75;;;;;;;11.69;100.00;98984.13;5066493;28;20189;-75
2022/01/03 16:40:13;;;;;;;5.22;3.40;;;;;;;11.65;100.00;98970.00;5063225;28;20194;-75
2022/01/03 16:42:40;;;;;;;12.88;6.10;;;;;;;11.71;100.00;98975.91;5062976;28;20657;-75
2022/01/03 16:45:07;;;;;;;10.68;4.80;;;;;;;11.49;100.00;98964.00;5072538;28;20558;-75
2022/01/03 16:47:34;;;;;;;9.98;3.88;;;;;;;11.49;100.00;98974.78;5069893;28;20232;-76
2022/01/03 16:50:02;;;;;;;7.45;3.85;;;;;;;11.63;100.00;98968.38;5062881;28;20189;-76
2022/01/03 16:52:30;;;;;;;10.00;4.30;;;;;;;11.64;100.00;98973.66;5069080;28;20220;-75
2022/01/03 16:54:57;;;;;;;13.80;6.75;;;;;;;11.63;100.00;98961.16;5063842;28;20280;-76
2022/01/03 16:57:25;;;;;;;13.07;4.93;;;;;;;11.63;100.00;98963.00;5070444;28;20276;-77
2022/01/03 16:59:52;;;;;;;10.07;3.72;;;;;;;11.64;100.00;98964.72;5067263;28;20627;-76
2022/01/03 17:02:18;;;;;;;10.43;4.05;;;;;;;11.58;100.00;98962.47;5060521;28;20281;-76
2022/01/03 17:04:45;;;;;;;9.50;4.35;;;;;;;11.67;100.00;98951.88;5061290;28;20190;-77
2022/01/03 17:07:12;;;;;;;10.50;7.00;;;;;;;11.63;100.00;98953.06;5053663;28;20198;-76
2022/01/03 17:09:42;;;;;;;9.32;4.72;;;;;;;11.74;100.00;98946.91;5053343;28;20298;-76
2022/01/03 17:12:10;;;;;;;7.28;4.32;;;;;;;11.71;100.00;98946.25;5075483;28;20204;-76
2022/01/03 17:14:37;;;;;;;11.00;3.60;;;;;;;11.70;100.00;98945.41;5093921;28;20308;-77
2022/01/03 17:17:04;;;;;;;11.00;4.88;;;;;;;11.72;100.00;98934.50;5094175;28;20229;-74
2022/01/03 17:19:31;;;;;;;9.15;4.68;;;;;;;11.55;100.00;98924.94;5088429;28;20235;-77
2022/01/03 17:21:57;;;;;;;9.57;4.43;;;;;;;11.62;100.00;98939.69;5073736;28;20268;-77
2022/01/03 17:24:24;;;;;;;9.38;5.18;;;;;;;11.62;100.00;98937.00;5074124;28;20236;-76
2022/01/03 17:26:52;;;;;;;7.35;3.58;;;;;;;11.61;100.00;98924.50;5075548;28;20220;-76
2022/01/03 17:29:19;;;;;;;6.20;3.20;;;;;;;11.62;100.00;98910.03;5094515;28;20185;-78
2022/01/03 17:31:46;;;;;;;8.10;4.07;;;;;;;11.57;100.00;98909.50;5093006;28;20221;-76
2022/01/03 17:34:12;;;;;;;12.98;5.25;;;;;;;11.67;100.00;98903.34;5089826;28;20233;-77
2022/01/03 17:36:39;;;;;;;10.98;4.18;;;;;;;11.59;100.00;98899.47;5078197;28;20264;-77
2022/01/03 17:39:06;;;;;;;7.82;5.30;;;;;;;11.55;100.00;98897.97;5065842;28;20233;-76
2022/01/03 17:41:33;;;;;;;14.05;7.13;;;;;;;11.63;100.00;98892.91;5067751;28;20192;-76
2022/01/03 17:44:01;;;;;;;13.80;4.00;;;;;;;11.63;100.00;98877.56;5061374;28;20297;-77
2022/01/03 17:46:27;;;;;;;8.25;4.80;;;;;;;11.73;100.00;98880.44;5063145;28;20595;-76
2022/01/03 17:48:54;;;;;;;8.23;4.30;;;;;;;11.74;100.00;98876.78;5062561;28;20766;-75
2022/01/03 17:51:21;;;;;;;4.90;4.10;;;;;;;11.69;100.00;98879.81;5063650;28;20222;-76
2022/01/03 17:53:50;;;;;;;7.45;4.10;;;;;;;11.66;100.00;98880.03;5065563;28;20609;-77
2022/01/03 17:56:20;;;;;;;6.25;3.25;;;;;;;11.65;100.00;98874.78;5064295;28;20191;-77
2022/01/03 17:58:46;;;;;;;12.18;4.63;;;;;;;11.65;100.00;98872.06;5068978;28;20738;-75